Time;durP1;ratioP1;P1;durP2;ratioP2;P2;SDS_P1;SDS_P2;PMS_P1;PMS_P2;Temp;Humidity;BMP_temperature;BMP_pressure;BME280_temperature;BME280_humidity;BME280_pressure;Samples;Min_cycle;Max_cycle;Signal;HPM_P1;HPM_P2
2023/09/26 00:01:27;;;;;;;;;16.00;16.00;;;;;18.97;71.27;101338.25;5076100;27;45535;-83
2023/09/26 00:03:52;;;;;;;;;13.33;13.33;;;;;19.09;71.25;101348.06;5077044;27;45435;-83
2023/09/26 00:06:23;;;;;;;;;13.33;13.33;;;;;18.96;70.25;101332.00;5078922;27;48631;-82
2023/09/26 00:08:54;;;;;;;;;16.67;14.00;;;;;19.09;69.91;101353.44;5077199;28;45430;-82
2023/09/26 00:11:21;;;;;;;;;14.00;12.33;;;;;19.07;68.84;101350.03;5077849;27;45251;-83
2023/09/26 00:13:48;;;;;;;;;13.00;13.00;;;;;18.81;68.69;101307.13;5077509;27;46483;-83
2023/09/26 00:16:14;;;;;;;;;11.00;11.00;;;;;18.74;68.13;101300.50;5077240;27;45382;-83
2023/09/26 00:18:40;;;;;;;;;12.00;11.67;;;;;18.99;67.84;101330.91;5077450;27;45393;-83
2023/09/26 00:21:10;;;;;;;;;13.67;13.33;;;;;18.79;67.74;101303.72;5077547;27;45425;-83
2023/09/26 00:23:36;;;;;;;;;10.67;10.67;;;;;19.05;67.23;101343.91;5077108;27;45357;-84
2023/09/26 00:26:04;;;;;;;;;11.00;11.00;;;;;18.91;67.32;101318.03;5076968;27;45508;-83
2023/09/26 00:28:29;;;;;;;;;13.00;10.00;;;;;19.00;66.90;101333.47;5077337;27;45297;-82
2023/09/26 00:30:59;;;;;;;;;6.00;6.00;;;;;18.86;66.78;101314.84;5077472;27;45451;-80
2023/09/26 00:33:24;;;;;;;;;8.67;8.67;;;;;18.97;66.96;101328.31;5076544;27;45244;-80
2023/09/26 00:35:49;;;;;;;;;8.00;8.00;;;;;18.93;66.52;101317.91;5075982;28;70784;-83
2023/09/26 00:38:15;;;;;;;;;11.00;11.00;;;;;19.01;66.57;101337.03;5077064;27;45228;-82
2023/09/26 00:40:41;;;;;;;;;9.00;9.00;;;;;18.97;66.41;101339.09;5076326;28;52762;-82
2023/09/26 00:43:07;;;;;;;;;10.33;9.00;;;;;18.89;66.26;101338.03;5076655;27;46283;-82
2023/09/26 00:45:33;;;;;;;;;9.33;9.00;;;;;18.85;66.21;101319.38;5077468;28;45340;-81
2023/09/26 00:47:58;;;;;;;;;11.67;10.00;;;;;18.96;66.15;101336.53;5077998;27;45606;-83
2023/09/26 00:50:24;;;;;;;;;8.67;7.00;;;;;18.81;65.74;101317.06;5076961;27;45415;-82
2023/09/26 00:52:51;;;;;;;;;9.33;7.67;;;;;18.73;65.55;101317.66;5076918;27;45386;-84
2023/09/26 00:55:20;;;;;;;;;8.33;8.33;;;;;18.82;65.57;101341.19;5076729;27;45371;-83
2023/09/26 00:57:46;;;;;;;;;7.00;7.00;;;;;18.82;65.75;101345.72;5077108;27;45370;-83
2023/09/26 01:00:15;;;;;;;;;10.00;10.00;;;;;18.81;65.73;101336.78;5068577;28;45429;-83
2023/09/26 01:02:41;;;;;;;;;8.67;8.67;;;;;18.80;65.54;101351.22;5071895;28;45480;-83
2023/09/26 01:05:08;;;;;;;;;8.00;7.33;;;;;18.69;65.96;101335.03;5079787;28;45396;-83
2023/09/26 01:07:35;;;;;;;;;8.33;6.67;;;;;18.73;65.74;101336.50;5080132;28;45333;-85
2023/09/26 01:10:01;;;;;;;;;11.00;8.00;;;;;18.78;65.32;101328.94;5080249;27;45290;-84
2023/09/26 01:12:27;;;;;;;;;11.00;9.00;;;;;18.81;65.43;101328.69;5079874;27;46138;-84
2023/09/26 01:14:54;;;;;;;;;11.67;9.00;;;;;18.76;65.64;101309.34;5083143;27;45207;-82
2023/09/26 01:17:20;;;;;;;;;9.67;9.00;;;;;18.80;65.11;101323.44;5080756;28;45417;-85
2023/09/26 01:19:45;;;;;;;;;10.33;8.00;;;;;18.79;65.07;101322.56;5081355;27;45313;-83
2023/09/26 01:22:15;;;;;;;;;8.00;8.00;;;;;18.79;64.73;101322.56;5082125;28;45950;-82
2023/09/26 01:24:40;;;;;;;;;10.00;9.67;;;;;18.66;64.44;101296.72;5073789;27;45331;-81
2023/09/26 01:27:06;;;;;;;;;8.00;8.00;;;;;18.79;64.54;101327.97;5063448;28;45426;-81
2023/09/26 01:29:31;;;;;;;;;8.00;7.00;;;;;18.80;63.96;101334.22;5061239;28;45261;-83
2023/09/26 01:31:57;;;;;;;;;7.33;7.00;;;;;18.71;64.08;101308.84;5059509;28;45291;-82
2023/09/26 01:34:22;;;;;;;;;10.67;9.33;;;;;18.63;63.44;101287.00;5059673;28;48840;-83
2023/09/26 01:36:47;;;;;;;;;6.67;6.67;;;;;18.84;63.12;101316.81;5071134;28;59736;-82
2023/09/26 01:39:13;;;;;;;;;11.33;9.00;;;;;18.82;63.12;101314.22;5079739;27;45222;-83
2023/09/26 01:41:38;;;;;;;;;6.00;6.00;;;;;18.67;62.46;101285.81;5079429;27;46037;-81
2023/09/26 01:44:05;;;;;;;;;8.00;6.33;;;;;18.68;62.05;101295.59;5079803;27;45453;-82
2023/09/26 01:46:30;;;;;;;;;8.00;8.00;;;;;18.71;61.85;101292.66;5079839;27;45323;-81
2023/09/26 01:48:55;;;;;;;;;8.67;7.00;;;;;18.64;61.57;101282.50;5079568;27;45652;-83
2023/09/26 01:51:21;;;;;;;;;4.00;3.00;;;;;18.51;61.61;101271.81;5079655;27;45439;-83
2023/09/26 01:53:46;;;;;;;;;8.00;6.00;;;;;18.59;61.48;101290.91;5079664;28;45289;-84
2023/09/26 01:56:12;;;;;;;;;5.00;4.67;;;;;18.34;61.19;101258.78;5079790;27;45795;-83
2023/09/26 01:58:37;;;;;;;;;7.00;5.33;;;;;18.50;61.52;101299.72;5078811;28;45812;-82
2023/09/26 02:01:03;;;;;;;;;8.00;6.00;;;;;18.51;61.12;101309.53;5077895;28;46198;-83
2023/09/26 02:03:28;;;;;;;;;7.67;7.67;;;;;18.49;61.48;101308.75;5080080;27;45348;-81
2023/09/26 02:05:57;;;;;;;;;6.67;5.00;;;;;18.46;61.52;101304.47;5080127;28;45273;-85
2023/09/26 02:08:22;;;;;;;;;6.33;6.33;;;;;18.45;61.46;101308.16;5079962;27;45231;-83
2023/09/26 02:10:47;;;;;;;;;6.00;6.00;;;;;18.42;61.63;101304.84;5079330;28;45429;-81
2023/09/26 02:13:12;;;;;;;;;6.33;6.33;;;;;18.33;61.51;101284.84;5077051;28;65855;-83
2023/09/26 02:15:38;;;;;;;;;7.00;7.00;;;;;18.44;61.62;101308.28;5079571;28;51178;-81
2023/09/26 02:18:04;;;;;;;;;6.67;5.67;;;;;18.43;61.41;101312.78;5079144;28;45319;-81
2023/09/26 02:20:29;;;;;;;;;5.67;5.00;;;;;18.35;61.54;101295.50;5078493;27;46339;-81
2023/09/26 02:22:54;;;;;;;;;5.00;5.00;;;;;18.37;61.12;101305.22;5079297;27;45338;-82
2023/09/26 02:25:20;;;;;;;;;5.00;5.00;;;;;18.21;61.33;101278.59;5078817;27;45476;-83
2023/09/26 02:27:47;;;;;;;;;7.00;5.67;;;;;18.32;61.18;101303.81;5078853;27;45433;-81
2023/09/26 02:30:18;;;;;;;;;6.67;5.00;;;;;18.21;61.22;101283.97;5078250;28;46239;-82
2023/09/26 02:32:44;;;;;;;;;7.00;7.00;;;;;18.25;61.30;101292.69;5078646;28;45500;-82
2023/09/26 02:35:12;;;;;;;;;4.67;4.67;;;;;18.26;61.34;101294.41;5078675;28;45550;-83
2023/09/26 02:37:38;;;;;;;;;7.00;7.00;;;;;18.19;61.40;101283.22;5079791;27;45515;-81
2023/09/26 02:40:05;;;;;;;;;6.00;5.00;;;;;18.20;61.36;101287.63;5079402;28;45349;-81
2023/09/26 02:42:32;;;;;;;;;5.67;5.33;;;;;18.18;61.53;101268.06;5079524;27;45310;-81
2023/09/26 02:44:58;;;;;;;;;6.33;6.00;;;;;18.07;61.54;101262.63;5079623;27;45364;-82
2023/09/26 02:47:23;;;;;;;;;5.67;5.67;;;;;18.23;61.44;101284.72;5079203;28;45343;-81
2023/09/26 02:49:49;;;;;;;;;9.00;7.00;;;;;18.23;61.23;101283.88;5077776;27;56839;-81
2023/09/26 02:52:14;;;;;;;;;7.67;7.67;;;;;18.09;61.40;101259.81;5077624;28;64151;-83
2023/09/26 02:54:39;;;;;;;;;6.67;6.67;;;;;18.01;61.42;101238.91;5078277;28;45510;-83
2023/09/26 02:57:04;;;;;;;;;8.00;6.00;;;;;18.12;61.51;101259.63;5077845;28;45360;-80
2023/09/26 02:59:30;;;;;;;;;8.67;8.00;;;;;18.08;61.67;101256.28;5078341;27;45490;-81
2023/09/26 03:01:56;;;;;;;;;6.00;6.00;;;;;18.04;61.86;101262.88;5077144;28;47453;-81
2023/09/26 03:04:21;;;;;;;;;8.33;6.00;;;;;17.96;62.15;101267.97;5076089;27;45802;-81
2023/09/26 03:06:46;;;;;;;;;8.00;6.67;;;;;17.82;62.22;101250.19;5076369;28;58905;-82
2023/09/26 03:09:11;;;;;;;;;8.00;8.00;;;;;17.91;62.24;101265.66;5076930;28;67991;-82
2023/09/26 03:11:37;;;;;;;;;6.67;6.67;;;;;17.80;62.32;101248.59;5077990;27;45321;-83
2023/09/26 03:14:02;;;;;;;;;10.00;7.00;;;;;17.90;62.46;101276.53;5078256;28;45491;-82
2023/09/26 03:16:28;;;;;;;;;7.00;7.00;;;;;17.85;62.44;101268.81;5078360;27;45488;-82
2023/09/26 03:18:54;;;;;;;;;7.00;7.00;;;;;17.79;62.71;101263.88;5078142;28;45947;-80
2023/09/26 03:21:20;;;;;;;;;8.00;7.00;;;;;17.80;62.69;101265.59;5077950;28;45338;-80
2023/09/26 03:23:46;;;;;;;;;7.00;7.00;;;;;17.71;63.03;101257.34;5072930;27;45172;-83
2023/09/26 03:26:13;;;;;;;;;7.00;7.00;;;;;17.69;62.93;101247.56;5056884;28;45301;-83
2023/09/26 03:28:39;;;;;;;;;6.00;6.00;;;;;17.68;62.96;101239.59;5057561;28;45484;-81
2023/09/26 03:31:04;;;;;;;;;7.00;7.00;;;;;17.84;62.72;101267.09;5056271;28;45383;-82
2023/09/26 03:33:30;;;;;;;;;8.00;6.67;;;;;17.85;62.45;101262.59;5057692;28;45434;-84
2023/09/26 03:35:57;;;;;;;;;5.00;5.00;;;;;17.86;62.38;101261.59;5059759;28;45512;-83
2023/09/26 03:38:23;;;;;;;;;9.33;6.33;;;;;17.87;62.73;101260.63;5060236;28;47038;-82
2023/09/26 03:40:55;;;;;;;;;9.00;7.00;;;;;17.87;62.87;101257.94;5058776;28;45335;-82
2023/09/26 03:43:20;;;;;;;;;7.00;7.00;;;;;17.81;62.46;101261.94;5058568;28;45417;-81
2023/09/26 03:45:46;;;;;;;;;8.00;7.00;;;;;17.83;62.08;101256.44;5057518;28;49860;-81
2023/09/26 03:48:11;;;;;;;;;8.67;7.00;;;;;17.79;62.17;101269.25;5057326;28;45754;-81
2023/09/26 03:50:36;;;;;;;;;6.67;6.00;;;;;17.77;62.22;101259.59;5057827;28;45399;-82
2023/09/26 03:53:02;;;;;;;;;4.33;4.33;;;;;17.67;62.14;101259.41;5058030;28;45677;-81
2023/09/26 03:55:27;;;;;;;;;6.00;6.00;;;;;17.68;62.09;101258.41;5057735;28;45355;-81
2023/09/26 03:57:52;;;;;;;;;6.00;4.00;;;;;17.61;62.65;101255.34;5055243;28;65340;-81
2023/09/26 04:00:18;;;;;;;;;5.00;5.00;;;;;17.47;62.52;101220.56;5061777;28;45354;-81
2023/09/26 04:02:44;;;;;;;;;4.00;4.00;;;;;17.60;62.57;101253.63;5077186;27;45309;-82
2023/09/26 04:05:10;;;;;;;;;6.67;5.33;;;;;17.59;62.43;101246.53;5077451;27;45165;-82
2023/09/26 04:07:36;;;;;;;;;6.00;6.00;;;;;17.51;62.77;101223.88;5076639;27;46293;-81
2023/09/26 04:10:01;;;;;;;;;6.67;6.67;;;;;17.51;63.00;101227.41;5076847;28;45329;-82
2023/09/26 04:12:27;;;;;;;;;6.67;6.67;;;;;17.57;62.72;101235.00;5076862;27;45348;-81
2023/09/26 04:14:52;;;;;;;;;5.00;5.00;;;;;17.44;62.57;101218.09;5076251;28;57115;-82
2023/09/26 04:17:18;;;;;;;;;6.00;6.00;;;;;17.51;62.60;101227.41;5076354;27;45348;-81
2023/09/26 04:19:46;;;;;;;;;7.00;6.00;;;;;17.49;63.00;101226.69;5076429;28;45389;-82
2023/09/26 04:22:11;;;;;;;;;6.00;6.00;;;;;17.40;63.02;101213.91;5065881;27;45366;-85
2023/09/26 04:24:37;;;;;;;;;5.00;5.00;;;;;17.52;62.80;101231.81;5073273;28;45612;-83
2023/09/26 04:27:02;;;;;;;;;8.00;7.00;;;;;17.46;62.75;101216.16;5090832;27;46423;-83
2023/09/26 04:29:28;;;;;;;;;6.67;6.67;;;;;17.41;62.93;101204.88;5077214;28;48138;-84
2023/09/26 04:31:53;;;;;;;;;9.67;8.00;;;;;17.50;62.93;101220.31;5076952;27;45405;-79
2023/09/26 04:34:18;;;;;;;;;7.00;7.00;;;;;17.47;62.94;101217.88;5071073;28;45480;-83
2023/09/26 04:36:44;;;;;;;;;10.67;7.67;;;;;17.48;62.82;101221.44;5056464;28;47635;-83
2023/09/26 04:39:09;;;;;;;;;8.33;8.33;;;;;17.46;62.87;101244.88;5072765;28;46875;-85
2023/09/26 04:41:34;;;;;;;;;7.00;7.00;;;;;17.33;63.09;101218.06;5067112;28;45394;-84
2023/09/26 04:44:00;;;;;;;;;6.00;6.00;;;;;17.33;63.17;101223.44;5057670;28;45210;-85
2023/09/26 04:46:25;;;;;;;;;8.00;8.00;;;;;17.25;63.47;101221.28;5057263;28;45309;-84
2023/09/26 04:48:50;;;;;;;;;8.00;8.00;;;;;17.35;63.27;101227.72;5073361;28;45342;-84
2023/09/26 04:51:18;;;;;;;;;9.00;7.00;;;;;17.17;63.74;101201.31;5057047;28;62021;-83
2023/09/26 04:53:44;;;;;;;;;7.00;7.00;;;;;17.19;63.55;101199.38;5057772;28;45492;-82
2023/09/26 04:56:09;;;;;;;;;9.00;9.00;;;;;17.09;63.69;101192.00;5055853;28;45432;-82
2023/09/26 04:58:34;;;;;;;;;9.33;8.67;;;;;17.24;63.72;101224.09;5057309;28;45476;-81
2023/09/26 05:01:11;;;;;;;;;10.67;8.33;;;;;17.20;63.78;101219.94;5062812;28;45450;-82
2023/09/26 05:03:36;;;;;;;;;8.00;8.00;;;;;17.16;63.76;101210.34;5078840;27;45455;-82
2023/09/26 05:06:02;;;;;;;;;8.00;8.00;;;;;17.16;64.33;101210.34;5077082;27;46775;-80
2023/09/26 05:08:27;;;;;;;;;13.00;9.00;;;;;17.03;64.24;101189.75;5077087;27;45341;-82
2023/09/26 05:10:53;;;;;;;;;11.67;11.00;;;;;17.10;64.14;101207.16;5076420;27;46843;-83
2023/09/26 05:13:18;;;;;;;;;10.00;8.00;;;;;17.14;64.27;101206.94;5077071;27;45540;-82
2023/09/26 05:15:44;;;;;;;;;10.33;10.00;;;;;17.13;64.45;101207.91;5076096;28;46032;-83
2023/09/26 05:18:09;;;;;;;;;8.67;8.67;;;;;17.08;64.27;101198.34;5076935;27;45307;-83
2023/09/26 05:20:35;;;;;;;;;10.00;9.00;;;;;17.12;64.44;101206.19;5077161;27;45309;-82
2023/09/26 05:23:02;;;;;;;;;8.00;8.00;;;;;16.94;64.46;101179.72;5075007;28;45558;-81
2023/09/26 05:25:27;;;;;;;;;11.00;9.00;;;;;17.09;64.37;101204.59;5076602;28;45269;-82
2023/09/26 05:27:53;;;;;;;;;10.00;8.00;;;;;17.08;64.53;101208.25;5067587;28;45437;-85
2023/09/26 05:30:18;;;;;;;;;8.67;7.67;;;;;17.07;64.55;101209.22;5075707;28;45344;-85
2023/09/26 05:32:44;;;;;;;;;10.00;10.00;;;;;16.89;64.76;101170.25;5081559;28;44974;-87
2023/09/26 05:35:10;;;;;;;;;10.33;10.33;;;;;17.07;64.75;101207.41;5059560;28;45346;-86
2023/09/26 05:37:37;;;;;;;;;10.00;8.00;;;;;17.10;64.46;101211.69;5062188;28;45480;-87
2023/09/26 05:40:06;;;;;;;;;8.00;8.00;;;;;17.10;64.44;101211.69;5079281;27;45426;-84
2023/09/26 05:42:35;;;;;;;;;10.00;10.00;;;;;17.11;64.49;101205.34;5075843;28;45607;-82
2023/09/26 05:45:00;;;;;;;;;12.33;10.00;;;;;17.10;64.10;101207.16;5073386;28;46033;-86
2023/09/26 05:47:26;;;;;;;;;11.00;11.00;;;;;17.01;64.37;101190.84;5068130;28;45497;-84
2023/09/26 05:49:51;;;;;;;;;10.00;10.00;;;;;17.08;64.34;101203.72;5080613;28;45242;-85
2023/09/26 05:52:18;;;;;;;;;9.67;9.67;;;;;16.84;64.52;101173.28;5063054;28;45253;-86
2023/09/26 05:54:44;;;;;;;;;10.33;10.33;;;;;17.12;64.37;101208.88;5060936;28;46626;-84
2023/09/26 05:57:10;;;;;;;;;13.33;12.00;;;;;17.08;64.59;101209.09;5064189;28;45366;-81
2023/09/26 05:59:35;;;;;;;;;17.00;13.67;;;;;17.16;64.44;101213.91;5078306;27;46708;-82
2023/09/26 06:02:00;;;;;;;;;12.67;12.33;;;;;17.19;64.29;101202.06;5076226;28;45880;-81
2023/09/26 06:04:26;;;;;;;;;7.00;7.00;;;;;17.23;64.04;101195.50;5078738;27;46084;-82
2023/09/26 06:06:51;;;;;;;;;11.00;9.33;;;;;17.06;63.67;101153.75;5076895;28;45341;-81
2023/09/26 06:09:16;;;;;;;;;7.00;7.00;;;;;17.30;63.71;101186.00;5078815;27;45370;-82
2023/09/26 06:11:42;;;;;;;;;11.67;11.67;;;;;17.33;63.67;101194.72;5078967;27;45374;-83
2023/09/26 06:14:07;;;;;;;;;10.67;9.67;;;;;17.35;63.73;101197.28;5067602;28;53584;-81
2023/09/26 06:16:32;;;;;;;;;12.33;11.67;;;;;17.33;63.60;101170.50;5071999;28;67224;-83
2023/09/26 06:18:58;;;;;;;;;12.33;10.67;;;;;17.36;63.16;101172.13;5078550;28;45355;-81
2023/09/26 06:21:23;;;;;;;;;9.33;9.00;;;;;17.54;62.96;101189.53;5078565;28;45479;-82
2023/09/26 06:23:49;;;;;;;;;10.67;10.67;;;;;17.40;62.99;101166.38;5078807;27;45449;-81
2023/09/26 06:26:14;;;;;;;;;13.67;12.67;;;;;17.40;63.21;101178.97;5079484;27;45215;-83
2023/09/26 06:28:40;;;;;;;;;12.33;12.33;;;;;17.50;63.20;101211.41;5079387;27;45387;-83
2023/09/26 06:31:07;;;;;;;;;16.33;13.00;;;;;17.46;63.31;101212.63;5080059;28;45243;-83
2023/09/26 06:33:34;;;;;;;;;14.00;11.00;;;;;17.22;63.18;101167.78;5079529;28;45351;-83
2023/09/26 06:36:00;;;;;;;;;13.67;12.00;;;;;17.44;63.30;101188.50;5079077;27;45199;-85
2023/09/26 06:38:25;;;;;;;;;11.33;11.00;;;;;17.37;63.25;101173.81;5094850;27;45319;-81
2023/09/26 06:41:06;;;;;;;;;13.33;12.33;;;;;17.50;63.19;101185.38;5079538;27;45234;-81
2023/09/26 06:43:32;;;;;;;;;14.00;13.00;;;;;17.56;63.49;101194.78;5079464;27;45344;-84
2023/09/26 06:45:57;;;;;;;;;13.67;10.67;;;;;17.66;62.96;101204.75;5078916;27;45377;-81
2023/09/26 06:48:23;;;;;;;;;14.00;14.00;;;;;17.82;62.70;101200.91;5078878;27;45574;-83
2023/09/26 06:50:48;;;;;;;;;14.00;14.00;;;;;17.88;61.81;101187.00;5079158;28;45300;-83
2023/09/26 06:53:14;;;;;;;;;15.00;12.33;;;;;18.25;61.23;101201.16;5079793;28;45497;-84
2023/09/26 06:55:39;;;;;;;;;15.00;12.67;;;;;19.17;59.30;101204.56;5078089;28;45446;-83
2023/09/26 06:58:05;;;;;;;;;13.00;12.00;;;;;19.45;57.68;101193.19;5079017;27;45195;-83
2023/09/26 07:00:31;;;;;;;;;10.67;10.00;;;;;19.13;57.45;101171.56;5078891;28;45493;-83
2023/09/26 07:02:57;;;;;;;;;14.67;12.00;;;;;19.15;58.18;101202.00;5075913;28;45301;-84
2023/09/26 07:05:23;;;;;;;;;14.67;13.00;;;;;18.97;58.14;101193.56;5074177;27;45588;-83
2023/09/26 07:07:48;;;;;;;;;14.67;10.33;;;;;19.07;58.48;101201.75;5065886;28;45401;-84
2023/09/26 07:10:14;;;;;;;;;11.00;11.00;;;;;18.97;58.37;101173.81;5065379;28;56589;-84
2023/09/26 07:12:40;;;;;;;;;13.00;13.00;;;;;18.93;57.92;101158.91;5056333;28;46755;-82
2023/09/26 07:15:07;;;;;;;;;15.33;12.67;;;;;18.97;57.72;101158.50;5057858;28;45551;-84
2023/09/26 07:17:33;;;;;;;;;16.67;13.33;;;;;19.33;58.14;101210.38;5058205;28;45577;-82
2023/09/26 07:19:59;;;;;;;;;17.67;15.00;;;;;19.38;58.18;101202.75;5060050;28;45422;-83
2023/09/26 07:22:25;;;;;;;;;14.00;11.33;;;;;19.53;57.58;101211.41;5058367;28;46474;-82
2023/09/26 07:24:50;;;;;;;;;15.67;13.00;;;;;19.75;56.50;101203.25;5074581;28;45406;-83
2023/09/26 07:27:17;;;;;;;;;13.67;13.67;;;;;19.90;56.60;101204.63;5079772;27;45370;-83
2023/09/26 07:29:47;;;;;;;;;14.33;12.33;;;;;19.90;56.00;101207.34;5079422;27;45563;-84
2023/09/26 07:32:14;;;;;;;;;11.00;11.00;;;;;19.67;55.98;101200.38;5069512;27;45523;-83
2023/09/26 07:34:41;;;;;;;;;10.00;10.00;;;;;19.67;56.43;101230.06;5062869;28;45449;-83
2023/09/26 07:37:06;;;;;;;;;14.67;12.67;;;;;19.48;56.63;101200.16;5062015;28;45363;-82
2023/09/26 07:39:31;;;;;;;;;14.00;11.00;;;;;19.48;56.66;101224.44;5068671;28;45260;-83
2023/09/26 07:41:57;;;;;;;;;9.33;9.33;;;;;19.21;56.69;101212.25;5098003;27;47087;-82
2023/09/26 07:44:22;;;;;;;;;10.00;9.00;;;;;19.05;57.16;101217.19;5085094;27;45226;-81
2023/09/26 07:46:47;;;;;;;;;15.00;12.00;;;;;19.00;57.77;101224.78;5080544;28;53059;-82
2023/09/26 07:49:13;;;;;;;;;13.67;12.33;;;;;19.07;57.53;101242.19;5081820;28;45231;-82
2023/09/26 07:51:38;;;;;;;;;10.33;10.00;;;;;19.07;57.89;101234.09;5079547;28;45876;-81
2023/09/26 07:54:04;;;;;;;;;9.00;9.00;;;;;19.03;57.56;101219.16;5078601;28;65187;-81
2023/09/26 07:56:29;;;;;;;;;10.00;9.67;;;;;19.08;57.59;101238.50;5079442;28;45357;-83
2023/09/26 07:58:55;;;;;;;;;10.67;10.00;;;;;19.01;57.51;101231.88;5078825;27;45488;-82
2023/09/26 08:01:20;;;;;;;;;10.00;10.00;;;;;18.86;57.67;101217.81;5077408;28;51189;-83
2023/09/26 08:03:45;;;;;;;;;9.00;9.00;;;;;18.96;57.94;101234.13;5077403;27;46535;-80
2023/09/26 08:06:13;;;;;;;;;10.00;9.33;;;;;18.99;58.05;101237.41;5076515;28;45334;-82
2023/09/26 08:08:38;;;;;;;;;13.00;12.00;;;;;19.09;57.93;101240.22;5078249;28;45270;-81
2023/09/26 08:11:09;;;;;;;;;11.33;10.33;;;;;18.85;57.63;101184.63;5076380;28;47028;-84
2023/09/26 08:13:36;;;;;;;;;14.67;12.67;;;;;19.17;57.57;101232.38;5078219;27;45392;-82
2023/09/26 08:16:02;;;;;;;;;12.67;9.67;;;;;19.25;57.29;101235.28;5077867;28;45323;-83
2023/09/26 08:18:27;;;;;;;;;11.00;11.00;;;;;19.33;57.35;101231.97;5078266;27;45377;-82
2023/09/26 08:20:55;;;;;;;;;11.00;10.33;;;;;19.41;57.14;101240.28;5076137;28;46058;-83
2023/09/26 08:23:21;;;;;;;;;12.33;9.67;;;;;19.39;56.96;101216.13;5077101;28;45357;-83
2023/09/26 08:25:47;;;;;;;;;11.00;11.00;;;;;19.57;56.67;101238.06;5077763;27;45303;-83
2023/09/26 08:28:12;;;;;;;;;13.67;9.67;;;;;19.43;57.11;101206.81;5077751;27;45671;-83
2023/09/26 08:30:37;;;;;;;;;14.00;12.00;;;;;19.65;56.43;101243.66;5077248;27;57170;-83
2023/09/26 08:33:03;;;;;;;;;13.00;10.67;;;;;19.84;56.52;101240.28;5076078;28;46036;-83
2023/09/26 08:35:31;;;;;;;;;9.00;9.00;;;;;19.95;56.04;101228.56;5077759;27;45451;-83
2023/09/26 08:37:56;;;;;;;;;11.67;10.67;;;;;19.84;55.68;101228.63;5078028;27;45588;-84
2023/09/26 08:40:26;;;;;;;;;15.00;12.00;;;;;19.87;55.83;101226.50;5077647;27;46534;-84
2023/09/26 08:42:56;;;;;;;;;10.00;9.33;;;;;19.62;55.68;101181.84;5077172;27;45480;-84
2023/09/26 08:45:25;;;;;;;;;11.67;10.33;;;;;19.99;56.22;101219.22;5076943;27;45445;-83
2023/09/26 08:47:54;;;;;;;;;10.00;10.00;;;;;19.98;56.16;101217.50;5077076;27;45369;-83
2023/09/26 08:50:21;;;;;;;;;11.33;11.00;;;;;19.93;55.99;101217.91;5077220;27;45441;-82
2023/09/26 08:52:47;;;;;;;;;12.00;10.00;;;;;19.72;55.82;101179.22;5078950;27;45352;-83
2023/09/26 08:55:12;;;;;;;;;10.00;10.00;;;;;19.84;55.61;101194.38;5078196;28;45353;-84
2023/09/26 08:57:38;;;;;;;;;10.33;9.00;;;;;20.00;56.00;101221.78;5076754;27;45475;-82
2023/09/26 09:00:07;;;;;;;;;15.67;12.67;;;;;19.69;55.56;101168.72;5076332;27;46439;-83
2023/09/26 09:02:33;;;;;;;;;14.33;12.33;;;;;19.91;55.67;101195.56;5076298;27;45292;-82
2023/09/26 09:04:58;;;;;;;;;11.67;10.33;;;;;19.99;55.82;101211.09;5077982;28;45273;-82
2023/09/26 09:07:24;;;;;;;;;7.00;7.00;;;;;19.98;55.81;101212.94;5080458;28;45224;-80
2023/09/26 09:10:05;;;;;;;;;13.00;12.67;;;;;19.93;56.00;101212.50;5080672;28;47223;-82
2023/09/26 09:12:30;;;;;;;;;14.33;14.00;;;;;19.82;56.33;101196.34;5075625;28;45184;-83
2023/09/26 09:14:55;;;;;;;;;13.00;10.00;;;;;19.94;56.07;101210.66;5077089;27;45287;-83
2023/09/26 09:17:21;;;;;;;;;12.33;12.33;;;;;19.82;56.11;101190.97;5077668;27;45234;-82
2023/09/26 09:19:51;;;;;;;;;11.33;11.33;;;;;20.04;56.26;101206.16;5076515;27;45287;-84
2023/09/26 09:22:20;;;;;;;;;10.33;9.33;;;;;20.01;55.39;101201.88;5078128;27;45494;-82
2023/09/26 09:24:56;;;;;;;;;19.33;15.67;;;;;19.87;56.20;101194.13;5079920;27;45265;-83
2023/09/26 09:27:32;;;;;;;;;14.67;13.33;;;;;19.97;55.84;101222.03;5078971;28;45455;-82
2023/09/26 09:30:24;;;;;;;;;12.33;12.33;;;;;19.86;56.09;101187.00;5079153;27;45340;-83
2023/09/26 09:32:50;;;;;;;;;9.67;9.67;;;;;20.16;55.59;101204.25;5057172;28;45597;-82
2023/09/26 09:35:17;;;;;;;;;12.67;11.00;;;;;20.06;55.44;101176.34;5039865;28;45293;-83
2023/09/26 09:37:45;;;;;;;;;11.67;11.67;;;;;20.26;55.52;101210.56;5056984;28;45317;-81
2023/09/26 09:40:15;;;;;;;;;13.67;12.33;;;;;20.30;55.21;101220.09;5056515;28;45461;-83
2023/09/26 09:42:41;;;;;;;;;11.67;11.67;;;;;20.24;55.33;101207.16;5054783;28;45498;-81
2023/09/26 09:45:08;;;;;;;;;11.67;11.33;;;;;20.29;55.03;101210.28;5055976;28;45534;-83
2023/09/26 09:47:36;;;;;;;;;13.00;13.00;;;;;20.31;55.70;101202.91;5056961;28;45448;-82
2023/09/26 09:50:02;;;;;;;;;16.00;12.33;;;;;20.03;55.00;101135.09;5056545;28;45542;-82
2023/09/26 09:52:33;;;;;;;;;12.33;10.33;;;;;20.28;54.69;101157.25;5056470;28;45605;-83
2023/09/26 09:55:02;;;;;;;;;15.33;14.00;;;;;20.42;54.46;101167.75;5056623;28;45256;-83
2023/09/26 09:57:29;;;;;;;;;16.67;16.00;;;;;20.72;54.81;101209.28;5056685;28;45485;-85
2023/09/26 09:59:57;;;;;;;;;14.00;12.33;;;;;20.68;54.50;101186.19;5056570;28;46120;-82
2023/09/26 10:02:23;;;;;;;;;13.67;11.67;;;;;20.78;54.48;101200.59;5058084;28;45358;-83
2023/09/26 10:04:53;;;;;;;;;15.00;12.67;;;;;20.89;53.65;101214.00;5075834;28;45344;-83
2023/09/26 10:07:18;;;;;;;;;16.67;14.33;;;;;20.90;53.83;101188.69;5081247;28;45384;-84
2023/09/26 10:09:44;;;;;;;;;14.33;11.33;;;;;21.11;54.24;101207.53;5079708;28;45912;-81
2023/09/26 10:12:12;;;;;;;;;13.00;11.33;;;;;21.26;53.65;101211.59;5079137;28;45322;-84
2023/09/26 10:14:38;;;;;;;;;11.67;11.67;;;;;21.37;53.16;101208.75;5079359;28;45310;-83
2023/09/26 10:17:04;;;;;;;;;12.00;11.67;;;;;21.50;52.63;101208.47;5079478;27;45255;-84
2023/09/26 10:19:33;;;;;;;;;18.00;13.00;;;;;21.76;51.92;101216.88;5079008;28;45263;-83
2023/09/26 10:22:26;;;;;;;;;12.33;12.33;;;;;21.96;51.46;101210.44;5078758;28;45451;-83
2023/09/26 10:24:53;;;;;;;;;13.67;10.67;;;;;22.21;51.00;101203.59;5090159;27;45283;-83
2023/09/26 10:27:35;;;;;;;;;10.67;10.00;;;;;22.40;50.04;101199.09;5077966;28;45526;-83
2023/09/26 10:30:01;;;;;;;;;12.67;12.67;;;;;22.64;50.16;101194.03;5078805;28;46143;-83
2023/09/26 10:32:34;;;;;;;;;15.00;10.67;;;;;23.02;50.10;101190.28;5078745;27;45369;-83
2023/09/26 10:35:22;;;;;;;;;11.33;11.00;;;;;23.20;49.30;101146.91;5079339;28;45165;-83
2023/09/26 10:37:49;;;;;;;;;17.00;14.00;;;;;23.87;47.32;101178.09;5077563;28;45421;-81
2023/09/26 10:40:18;;;;;;;;;12.67;11.00;;;;;24.21;46.95;101169.13;5078199;28;47789;-83
2023/09/26 10:42:46;;;;;;;;;12.00;12.00;;;;;24.70;46.08;101170.28;5078058;28;45251;-84
2023/09/26 10:45:12;;;;;;;;;16.33;12.00;;;;;25.04;44.80;101156.66;5078397;28;45270;-83
2023/09/26 10:47:40;;;;;;;;;10.67;8.33;;;;;25.54;43.87;101158.44;5079709;28;45611;-83
2023/09/26 10:50:12;;;;;;;;;14.00;11.00;;;;;25.84;42.62;101171.41;5078278;28;45483;-83
2023/09/26 10:52:46;;;;;;;;;10.50;10.00;;;;;25.99;42.15;101179.75;5078905;28;45965;-84
2023/09/26 10:55:14;;;;;;;;;7.00;7.00;;;;;26.16;40.87;101177.81;5078894;28;45444;-84
2023/09/26 10:57:39;;;;;;;;;11.00;7.25;;;;;26.33;41.17;101170.50;5083987;28;45387;-83
2023/09/26 11:00:12;;;;;;;;;9.00;9.00;;;;;26.54;40.40;101175.38;5079805;28;45405;-86
2023/09/26 11:02:38;;;;;;;;;8.50;8.50;;;;;26.71;40.53;101157.94;5079810;28;45339;-84
2023/09/26 11:05:11;;;;;;;;;8.00;8.00;;;;;26.96;39.41;101151.34;5079451;28;45486;-83
2023/09/26 11:07:37;;;;;;;;;11.00;9.00;;;;;27.33;39.08;101164.25;5083375;28;45346;-83
2023/09/26 11:10:04;;;;;;;;;12.00;10.00;;;;;27.83;39.16;101159.28;5087321;28;45375;-82
2023/09/26 11:12:32;;;;;;;;;12.00;9.00;;;;;27.97;37.33;101122.06;5081631;28;45342;-84
2023/09/26 11:15:02;;;;;;;;;8.60;7.60;;;;;28.48;36.79;101153.16;5080293;28;45385;-85